createdAt,value
2023-07-23T00:01:05.657Z,99.60
2023-07-23T00:03:34.676Z,99.60
2023-07-23T00:06:03.651Z,99.40
2023-07-23T00:08:32.652Z,99.50
2023-07-23T00:11:01.671Z,99.20
2023-07-23T00:13:30.651Z,99.60
2023-07-23T00:15:59.685Z,99.90
2023-07-23T00:18:28.684Z,99.50
2023-07-23T00:20:57.776Z,99.90
2023-07-23T00:23:26.837Z,99.90
2023-07-23T00:25:56.802Z,99.10
2023-07-23T00:28:25.761Z,99.40
2023-07-23T00:30:54.749Z,99.00
2023-07-23T00:33:25.589Z,98.60
2023-07-23T00:35:54.602Z,98.80
2023-07-23T00:38:24.107Z,99.90
2023-07-23T00:40:54.816Z,99.90
2023-07-23T00:43:23.792Z,99.90
2023-07-23T00:45:53.184Z,99.50
2023-07-23T00:48:22.298Z,99.00
2023-07-23T00:50:51.388Z,98.80
2023-07-23T00:53:21.077Z,98.70
2023-07-23T00:55:50.938Z,99.10
2023-07-23T00:58:19.975Z,98.60
2023-07-23T01:00:49.317Z,98.30
2023-07-23T01:03:18.487Z,98.10
2023-07-23T01:05:48.802Z,97.90
2023-07-23T01:08:17.919Z,97.90
2023-07-23T01:10:47.382Z,97.70
2023-07-23T01:13:18.114Z,97.60
2023-07-23T01:15:47.381Z,97.50
2023-07-23T01:18:17.583Z,97.70
2023-07-23T01:20:46.569Z,97.60
2023-07-23T01:23:15.565Z,97.40
2023-07-23T01:25:45.569Z,97.70
2023-07-23T01:28:14.549Z,97.40
2023-07-23T01:30:44.308Z,97.10
2023-07-23T01:33:13.632Z,97.00
2023-07-23T01:35:42.604Z,96.90
2023-07-23T01:38:12.561Z,96.80
2023-07-23T01:40:43.358Z,97.10
2023-07-23T01:43:12.563Z,96.50
2023-07-23T01:45:48.365Z,96.70
2023-07-23T01:48:18.919Z,96.40
2023-07-23T01:50:48.006Z,96.30
2023-07-23T01:53:16.974Z,95.90
2023-07-23T01:55:46.043Z,95.80
2023-07-23T01:58:15.031Z,95.60
2023-07-23T02:00:44.032Z,95.50
2023-07-23T02:03:13.165Z,95.30
2023-07-23T02:05:42.143Z,95.40
2023-07-23T02:08:11.112Z,95.20
2023-07-23T02:10:40.074Z,95.10
2023-07-23T02:13:09.636Z,95.00
2023-07-23T02:15:38.606Z,94.90
2023-07-23T02:18:07.562Z,94.90
2023-07-23T02:20:38.480Z,94.80
2023-07-23T02:23:07.493Z,94.70
2023-07-23T02:25:42.341Z,94.50
2023-07-23T02:28:14.235Z,94.30
2023-07-23T02:30:43.436Z,94.30
2023-07-23T02:33:12.456Z,94.20
2023-07-23T02:35:41.436Z,94.10
2023-07-23T02:38:10.400Z,94.00
2023-07-23T02:40:39.554Z,94.10
2023-07-23T02:43:11.899Z,94.00
2023-07-23T02:45:44.704Z,94.00
2023-07-23T02:48:13.708Z,94.10
2023-07-23T02:50:42.759Z,94.00
2023-07-23T02:53:11.737Z,94.00
2023-07-23T02:55:40.761Z,93.90
2023-07-23T02:58:09.729Z,93.80
2023-07-23T03:00:42.482Z,93.90
2023-07-23T03:03:11.565Z,93.80
2023-07-23T03:05:40.662Z,93.70
2023-07-23T03:08:09.659Z,93.60
2023-07-23T03:10:38.694Z,93.50
2023-07-23T03:13:07.716Z,93.50
2023-07-23T03:15:39.946Z,93.50
2023-07-23T03:18:08.986Z,93.30
2023-07-23T03:20:37.982Z,93.30
2023-07-23T03:23:06.996Z,93.30
2023-07-23T03:25:36.074Z,93.20
2023-07-23T03:28:05.134Z,93.20
2023-07-23T03:30:34.220Z,93.10
2023-07-23T03:33:03.363Z,93.00
2023-07-23T03:35:32.514Z,93.10
2023-07-23T03:38:01.595Z,93.00
2023-07-23T03:40:30.581Z,93.00
2023-07-23T03:42:59.575Z,93.00
2023-07-23T03:45:28.552Z,93.00
2023-07-23T03:47:57.589Z,93.00
2023-07-23T03:50:28.117Z,92.90
2023-07-23T03:52:57.094Z,92.80
2023-07-23T03:55:26.088Z,92.90
2023-07-23T03:57:55.149Z,92.80
2023-07-23T04:00:24.251Z,92.80
2023-07-23T04:02:53.327Z,92.80
2023-07-23T04:05:22.402Z,92.80
2023-07-23T04:07:51.416Z,92.70
2023-07-23T04:10:20.442Z,92.70
2023-07-23T04:12:50.627Z,92.80
2023-07-23T04:15:19.748Z,92.70
2023-07-23T04:17:48.790Z,92.60
2023-07-23T04:20:18.945Z,92.60
2023-07-23T04:22:47.970Z,92.60
2023-07-23T04:25:17.025Z,92.50
2023-07-23T04:27:46.072Z,92.50
2023-07-23T04:30:15.159Z,92.40
2023-07-23T04:32:44.334Z,92.20
2023-07-23T04:35:13.741Z,92.20
2023-07-23T04:37:42.714Z,91.80
2023-07-23T04:40:12.116Z,91.90
2023-07-23T04:42:41.072Z,91.90
2023-07-23T04:45:10.554Z,91.70
2023-07-23T04:47:41.460Z,91.60
2023-07-23T04:50:10.802Z,91.40
2023-07-23T04:52:40.626Z,91.40
2023-07-23T04:55:10.658Z,91.40
2023-07-23T04:57:40.506Z,91.40
2023-07-23T05:00:10.071Z,91.20
2023-07-23T05:02:39.129Z,90.50
2023-07-23T05:05:08.576Z,91.00
2023-07-23T05:07:37.622Z,91.00
2023-07-23T05:10:07.028Z,90.70
2023-07-23T05:12:36.240Z,90.60
2023-07-23T05:15:18.818Z,90.50
2023-07-23T05:17:47.851Z,90.50
2023-07-23T05:20:18.231Z,90.30
2023-07-23T05:22:47.380Z,90.10
2023-07-23T05:25:16.450Z,90.20
2023-07-23T05:27:45.566Z,90.10
2023-07-23T05:30:16.378Z,90.10
2023-07-23T05:32:45.981Z,89.50
2023-07-23T05:35:15.701Z,87.90
2023-07-23T05:37:44.678Z,89.00
2023-07-23T05:40:13.978Z,88.70
2023-07-23T05:42:42.972Z,88.90
2023-07-23T05:45:12.349Z,88.60
2023-07-23T05:47:41.395Z,87.80
2023-07-23T05:50:10.844Z,87.80
2023-07-23T05:52:39.889Z,87.00
2023-07-23T05:55:09.322Z,86.90
2023-07-23T05:57:38.310Z,86.80
2023-07-23T06:00:08.043Z,86.30
2023-07-23T06:02:37.089Z,85.90
2023-07-23T06:05:06.561Z,85.40
2023-07-23T06:07:35.602Z,85.00
2023-07-23T06:10:05.023Z,84.70
2023-07-23T06:12:35.605Z,84.20
2023-07-23T06:15:05.353Z,84.50
2023-07-23T06:17:34.725Z,84.20
2023-07-23T06:20:03.819Z,84.10
2023-07-23T06:22:32.813Z,83.90
2023-07-23T06:25:01.797Z,84.00
2023-07-23T06:27:30.765Z,84.40
2023-07-23T06:29:59.774Z,84.30
2023-07-23T06:32:28.814Z,84.50
2023-07-23T06:34:57.895Z,84.90
2023-07-23T06:37:27.002Z,84.40
2023-07-23T06:39:56.029Z,85.00
2023-07-23T06:42:25.228Z,85.00
2023-07-23T06:44:54.266Z,84.70
2023-07-23T06:47:23.294Z,85.40
2023-07-23T06:49:52.272Z,84.60
2023-07-23T06:52:21.647Z,84.30
2023-07-23T06:54:50.644Z,83.80
2023-07-23T06:57:19.607Z,83.60
2023-07-23T06:59:48.833Z,83.00
2023-07-23T07:02:18.134Z,83.30
2023-07-23T07:04:47.105Z,83.40
2023-07-23T07:07:16.086Z,82.90
2023-07-23T07:09:45.074Z,83.40
2023-07-23T07:12:14.029Z,83.70
2023-07-23T07:14:43.244Z,83.80
2023-07-23T07:17:12.281Z,83.20
2023-07-23T07:19:41.321Z,83.80
2023-07-23T07:22:10.372Z,84.30
2023-07-23T07:24:39.447Z,83.90
2023-07-23T07:27:11.981Z,83.80
2023-07-23T07:29:43.262Z,83.80
2023-07-23T07:32:12.315Z,84.20
2023-07-23T07:34:42.667Z,83.60
2023-07-23T07:37:11.628Z,83.30
2023-07-23T07:39:40.638Z,82.70
2023-07-23T07:42:10.880Z,82.20
2023-07-23T07:44:39.908Z,82.10
2023-07-23T07:47:09.021Z,82.20
2023-07-23T07:49:37.997Z,82.30
2023-07-23T07:52:07.535Z,82.00
2023-07-23T07:54:38.701Z,82.30
2023-07-23T07:57:08.032Z,82.30
2023-07-23T07:59:37.314Z,82.40
2023-07-23T08:02:06.703Z,82.60
2023-07-23T08:04:36.452Z,82.80
2023-07-23T08:07:06.104Z,82.30
2023-07-23T08:09:36.729Z,82.70
2023-07-23T08:12:08.417Z,82.60
2023-07-23T08:14:40.281Z,82.30
2023-07-23T08:17:09.766Z,82.20
2023-07-23T08:19:39.054Z,81.70
2023-07-23T08:22:08.664Z,81.70
2023-07-23T08:24:37.873Z,81.30
2023-07-23T08:27:10.068Z,80.90
2023-07-23T08:29:42.566Z,81.00
2023-07-23T08:32:17.418Z,80.60
2023-07-23T08:34:47.225Z,81.00
2023-07-23T08:37:16.457Z,81.10
2023-07-23T08:39:45.790Z,81.30
2023-07-23T08:42:44.797Z,81.10
2023-07-23T08:45:22.710Z,80.60
2023-07-23T08:47:57.462Z,80.60
2023-07-23T08:50:27.434Z,81.20
2023-07-23T08:52:57.291Z,81.00
2023-07-23T08:55:27.076Z,80.90
2023-07-23T08:57:56.207Z,80.90
2023-07-23T09:00:29.765Z,80.80
2023-07-23T09:03:05.250Z,80.70
2023-07-23T09:05:34.354Z,78.70
2023-07-23T09:08:04.417Z,80.70
2023-07-23T09:10:33.536Z,80.40
2023-07-23T09:13:11.381Z,80.80
2023-07-23T09:15:40.499Z,80.80
2023-07-23T09:18:11.418Z,80.80
2023-07-23T09:20:41.347Z,80.90
2023-07-23T09:23:10.826Z,80.90
2023-07-23T09:25:41.289Z,80.80
2023-07-23T09:28:10.300Z,80.80
2023-07-23T09:30:39.359Z,80.60
2023-07-23T09:33:10.224Z,80.40
2023-07-23T09:35:41.331Z,80.30
2023-07-23T09:38:16.649Z,80.20
2023-07-23T09:40:47.410Z,80.50
2023-07-23T09:43:16.762Z,80.30
2023-07-23T09:45:46.513Z,80.00
2023-07-23T09:48:18.774Z,79.60
2023-07-23T09:50:48.289Z,80.30
2023-07-23T09:53:18.122Z,80.30
2023-07-23T09:55:48.363Z,80.00
2023-07-23T09:58:20.358Z,80.10
2023-07-23T10:00:51.732Z,79.80
2023-07-23T10:03:21.639Z,79.90
2023-07-23T10:05:52.347Z,80.00
2023-07-23T10:08:24.598Z,79.70
2023-07-23T10:10:53.632Z,79.50
2023-07-23T10:13:22.696Z,79.30
2023-07-23T10:15:53.662Z,79.30
2023-07-23T10:18:27.944Z,80.40
2023-07-23T10:20:58.462Z,79.70
2023-07-23T10:23:27.544Z,79.40
2023-07-23T10:26:25.266Z,79.70
2023-07-23T10:29:20.741Z,79.30
2023-07-23T10:31:49.996Z,79.20
2023-07-23T10:34:28.401Z,79.60
2023-07-23T10:37:14.926Z,79.40
2023-07-23T10:39:46.522Z,78.90
2023-07-23T10:42:37.574Z,79.80
2023-07-23T10:45:23.651Z,79.30
2023-07-23T10:47:53.084Z,79.40
2023-07-23T10:50:23.443Z,77.40
2023-07-23T10:52:54.821Z,79.30
2023-07-23T10:55:49.354Z,79.90
2023-07-23T10:58:23.147Z,79.00
2023-07-23T11:01:02.280Z,79.60
2023-07-23T11:03:31.361Z,79.30
2023-07-23T11:06:01.144Z,79.70
2023-07-23T11:08:30.232Z,79.60
2023-07-23T11:11:01.921Z,80.10
2023-07-23T11:13:34.494Z,80.00
2023-07-23T11:16:04.492Z,79.90
2023-07-23T11:18:36.769Z,80.00
2023-07-23T11:21:07.637Z,80.00
2023-07-23T11:23:36.746Z,80.30
2023-07-23T11:26:05.763Z,80.30
2023-07-23T11:28:35.098Z,80.40
2023-07-23T11:31:04.258Z,80.30
2023-07-23T11:33:35.563Z,81.20
2023-07-23T11:36:04.689Z,80.40
2023-07-23T11:38:36.584Z,80.40
2023-07-23T11:41:05.913Z,80.60
2023-07-23T11:43:40.211Z,80.70
2023-07-23T11:46:09.298Z,80.80
2023-07-23T11:48:39.336Z,80.90
2023-07-23T11:51:08.480Z,81.10
2023-07-23T11:53:40.875Z,81.30
2023-07-23T11:56:12.200Z,81.60
2023-07-23T11:58:43.084Z,81.70
2023-07-23T12:01:12.770Z,81.90
2023-07-23T12:03:47.643Z,82.00
2023-07-23T12:06:18.337Z,82.10
2023-07-23T12:08:50.606Z,82.40
2023-07-23T12:11:19.590Z,82.40
2023-07-23T12:13:53.684Z,82.50
2023-07-23T12:16:34.766Z,82.80
2023-07-23T12:19:06.150Z,83.00
2023-07-23T12:21:40.760Z,83.10
2023-07-23T12:24:21.060Z,83.10
2023-07-23T12:26:54.814Z,83.40
2023-07-23T12:29:24.584Z,83.50
2023-07-23T12:32:12.104Z,84.20
2023-07-23T12:34:45.696Z,83.80
2023-07-23T12:37:17.051Z,83.80
2023-07-23T12:39:49.107Z,83.90
2023-07-23T12:42:18.219Z,84.30
2023-07-23T12:44:47.306Z,84.40
2023-07-23T12:47:16.931Z,84.60
2023-07-23T12:49:45.923Z,84.60
2023-07-23T12:52:17.325Z,84.80
2023-07-23T12:54:47.680Z,84.90
2023-07-23T12:57:16.927Z,84.90
2023-07-23T12:59:46.385Z,85.10
2023-07-23T13:02:15.359Z,85.30
2023-07-23T13:04:47.660Z,85.40
2023-07-23T13:07:16.644Z,85.50
2023-07-23T13:09:45.625Z,85.80
2023-07-23T13:12:14.595Z,85.90
2023-07-23T13:14:43.616Z,86.00
2023-07-23T13:17:12.835Z,86.10
2023-07-23T13:19:41.860Z,86.10
2023-07-23T13:22:10.855Z,86.30
2023-07-23T13:24:39.913Z,86.40
2023-07-23T13:27:09.251Z,86.50
2023-07-23T13:29:38.252Z,86.60
2023-07-23T13:32:08.012Z,86.90
2023-07-23T13:34:37.001Z,86.90
2023-07-23T13:37:06.289Z,87.00
2023-07-23T13:39:35.317Z,86.80
2023-07-23T13:42:04.355Z,87.00
2023-07-23T13:44:34.538Z,87.10
2023-07-23T13:47:03.533Z,86.90
2023-07-23T13:49:32.576Z,87.00
2023-07-23T13:52:01.546Z,87.50
2023-07-23T13:54:30.552Z,87.80
2023-07-23T13:56:59.617Z,88.40
2023-07-23T13:59:35.204Z,88.70
2023-07-23T14:02:04.638Z,89.40
2023-07-23T14:04:33.749Z,90.10
2023-07-23T14:07:02.918Z,90.20
2023-07-23T14:09:31.856Z,90.40
2023-07-23T14:12:00.861Z,90.50
2023-07-23T14:14:30.156Z,91.20
2023-07-23T14:16:59.173Z,90.50
2023-07-23T14:19:28.338Z,90.40
2023-07-23T14:21:59.557Z,90.60
2023-07-23T14:24:28.581Z,90.80
2023-07-23T14:26:57.535Z,90.90
2023-07-23T14:29:26.517Z,91.00
2023-07-23T14:31:55.490Z,91.30
2023-07-23T14:34:24.466Z,91.30
2023-07-23T14:36:53.453Z,91.30
2023-07-23T14:39:22.481Z,91.30
2023-07-23T14:41:51.474Z,91.40
2023-07-23T14:44:20.462Z,91.50
2023-07-23T14:46:50.257Z,91.70
2023-07-23T14:49:19.268Z,91.80
2023-07-23T14:51:48.378Z,91.90
2023-07-23T14:54:17.372Z,92.10
2023-07-23T14:56:48.001Z,92.20
2023-07-23T14:59:16.954Z,92.30
2023-07-23T15:01:46.060Z,92.30
2023-07-23T15:04:15.260Z,92.50
2023-07-23T15:06:44.398Z,92.50
2023-07-23T15:09:14.699Z,92.50
2023-07-23T15:11:44.183Z,92.80
2023-07-23T15:14:13.593Z,92.90
2023-07-23T15:16:42.967Z,93.00
2023-07-23T15:19:12.252Z,93.10
2023-07-23T15:21:41.513Z,93.30
2023-07-23T15:24:11.364Z,93.50
2023-07-23T15:26:42.072Z,93.60
2023-07-23T15:29:11.407Z,93.70
2023-07-23T15:31:40.814Z,93.80
2023-07-23T15:34:09.821Z,94.00
2023-07-23T15:36:38.881Z,94.00
2023-07-23T15:39:07.854Z,94.10
2023-07-23T15:41:36.820Z,94.20
2023-07-23T15:44:05.885Z,94.20
2023-07-23T15:46:34.875Z,94.30
2023-07-23T15:49:03.808Z,94.50
2023-07-23T15:51:32.955Z,94.50
2023-07-23T15:54:01.950Z,94.70
2023-07-23T15:56:30.931Z,94.70
2023-07-23T15:59:00.029Z,94.80
2023-07-23T16:01:29.329Z,94.90
2023-07-23T16:03:59.858Z,95.00
2023-07-23T16:06:28.868Z,95.00
2023-07-23T16:08:58.066Z,95.10
2023-07-23T16:11:27.436Z,95.20
2023-07-23T16:13:56.632Z,95.20
2023-07-23T16:16:25.980Z,95.30
2023-07-23T16:18:55.074Z,95.40
2023-07-23T16:21:24.181Z,95.80
2023-07-23T16:23:53.167Z,95.70
2023-07-23T16:26:22.146Z,95.70
2023-07-23T16:28:51.163Z,95.70
2023-07-23T16:31:20.184Z,95.70
2023-07-23T16:33:49.531Z,95.60
2023-07-23T16:36:19.996Z,95.20
2023-07-23T16:38:50.314Z,95.50
2023-07-23T16:41:20.473Z,95.40
2023-07-23T16:43:50.443Z,95.60
2023-07-23T16:46:19.558Z,95.70
2023-07-23T16:48:48.653Z,95.40
2023-07-23T16:51:17.931Z,95.70
2023-07-23T16:53:46.890Z,95.90
2023-07-23T16:56:15.891Z,95.90
2023-07-23T16:58:51.904Z,96.00
2023-07-23T17:01:20.938Z,96.00
2023-07-23T17:03:49.974Z,96.10
2023-07-23T17:06:19.001Z,96.20
2023-07-23T17:08:47.929Z,96.20
2023-07-23T17:11:20.999Z,96.30
2023-07-23T17:13:50.542Z,96.30
2023-07-23T17:16:20.075Z,96.60
2023-07-23T17:18:49.154Z,96.60
2023-07-23T17:21:18.199Z,96.50
2023-07-23T17:23:47.162Z,96.50
2023-07-23T17:26:16.166Z,97.00
2023-07-23T17:28:45.118Z,96.60
2023-07-23T17:31:14.162Z,96.70
2023-07-23T17:33:43.167Z,96.80
2023-07-23T17:36:12.154Z,96.80
2023-07-23T17:38:41.123Z,96.90
2023-07-23T17:41:10.111Z,97.00
2023-07-23T17:43:39.084Z,96.80
2023-07-23T17:46:08.903Z,96.90
2023-07-23T17:48:38.104Z,97.00
2023-07-23T17:51:07.140Z,97.50
2023-07-23T17:53:39.488Z,97.30
2023-07-23T17:56:08.582Z,97.40
2023-07-23T17:58:37.538Z,97.40
2023-07-23T18:01:19.608Z,97.50
2023-07-23T18:03:55.590Z,97.60
2023-07-23T18:06:24.586Z,97.70
2023-07-23T18:08:53.540Z,97.70
2023-07-23T18:11:22.477Z,97.80
2023-07-23T18:13:51.511Z,97.70
2023-07-23T18:16:20.580Z,97.60
2023-07-23T18:18:49.634Z,97.50
2023-07-23T18:21:18.577Z,97.50
2023-07-23T18:23:47.619Z,97.50
2023-07-23T18:26:16.741Z,97.50
2023-07-23T18:28:46.004Z,97.70
2023-07-23T18:31:29.099Z,97.80
2023-07-23T18:34:03.135Z,97.80
2023-07-23T18:36:32.446Z,97.90
2023-07-23T18:39:02.007Z,97.90
2023-07-23T18:41:32.677Z,98.00
2023-07-23T18:44:02.234Z,98.00
2023-07-23T18:46:32.131Z,98.10
2023-07-23T18:49:01.511Z,98.20
2023-07-23T18:51:30.484Z,98.00
2023-07-23T18:53:59.508Z,98.10
2023-07-23T18:56:28.705Z,98.10
2023-07-23T18:58:57.911Z,98.20
2023-07-23T19:01:26.939Z,98.20
2023-07-23T19:03:56.698Z,98.30
2023-07-23T19:06:25.804Z,98.30
2023-07-23T19:08:54.938Z,98.40
2023-07-23T19:11:23.884Z,98.40
2023-07-23T19:13:53.301Z,98.40
2023-07-23T19:16:22.438Z,98.50
2023-07-23T19:18:51.518Z,98.60
2023-07-23T19:21:20.522Z,98.60
2023-07-23T19:23:49.869Z,98.70
2023-07-23T19:26:18.840Z,98.80
2023-07-23T19:28:47.831Z,98.90
2023-07-23T19:31:16.933Z,99.10
2023-07-23T19:33:45.927Z,99.20
2023-07-23T19:36:15.143Z,99.20
2023-07-23T19:38:44.187Z,99.20
2023-07-23T19:41:13.176Z,99.30
2023-07-23T19:43:43.117Z,99.20
2023-07-23T19:46:12.470Z,99.30
2023-07-23T19:48:41.434Z,99.40
2023-07-23T19:51:10.415Z,99.40
2023-07-23T19:53:39.371Z,99.30
2023-07-23T19:56:08.404Z,99.40
2023-07-23T19:58:37.348Z,99.40
2023-07-23T20:01:06.368Z,99.40
2023-07-23T20:03:35.486Z,99.40
2023-07-23T20:06:04.473Z,99.40
2023-07-23T20:08:34.598Z,99.20
2023-07-23T20:11:03.855Z,99.10
2023-07-23T20:13:32.887Z,98.90
2023-07-23T20:16:02.057Z,99.00
2023-07-23T20:18:31.087Z,98.90
2023-07-23T20:21:00.227Z,99.00
2023-07-23T20:23:29.209Z,99.20
2023-07-23T20:25:59.366Z,99.30
2023-07-23T20:28:28.568Z,99.30
2023-07-23T20:30:57.790Z,99.40
2023-07-23T20:33:27.145Z,99.40
2023-07-23T20:35:57.403Z,99.30
2023-07-23T20:38:26.681Z,99.50
2023-07-23T20:40:56.012Z,99.10
2023-07-23T20:43:24.959Z,99.30
2023-07-23T20:45:53.955Z,99.00
2023-07-23T20:48:22.934Z,99.10
2023-07-23T20:50:52.130Z,99.60
2023-07-23T20:53:21.088Z,99.40
2023-07-23T20:55:50.034Z,99.50
2023-07-23T20:58:19.056Z,99.50
2023-07-23T21:00:48.025Z,99.70
2023-07-23T21:03:17.016Z,99.60
2023-07-23T21:05:45.976Z,99.60
2023-07-23T21:08:14.941Z,99.20
2023-07-23T21:10:43.920Z,99.10
2023-07-23T21:13:12.969Z,99.50
2023-07-23T21:15:42.993Z,99.80
2023-07-23T21:18:12.032Z,99.80
2023-07-23T21:20:40.984Z,99.90
2023-07-23T21:23:09.990Z,99.70
2023-07-23T21:25:38.939Z,99.80
2023-07-23T21:28:07.895Z,99.90
2023-07-23T21:30:37.291Z,99.90
2023-07-23T21:33:06.440Z,99.90
2023-07-23T21:35:43.582Z,99.90
2023-07-23T21:38:14.755Z,99.90
2023-07-23T21:40:43.838Z,99.90
2023-07-23T21:43:12.825Z,99.90
2023-07-23T21:45:49.757Z,99.90
2023-07-23T21:48:20.516Z,99.90
2023-07-23T21:50:49.543Z,99.90
2023-07-23T21:53:18.631Z,99.90
2023-07-23T21:55:47.633Z,99.90
2023-07-23T21:58:18.704Z,99.90
2023-07-23T22:00:48.418Z,99.90
2023-07-23T22:03:19.128Z,99.90
2023-07-23T22:05:48.296Z,99.90
2023-07-23T22:08:17.344Z,99.90
2023-07-23T22:10:46.297Z,99.90
2023-07-23T22:13:15.296Z,99.90
2023-07-23T22:15:44.694Z,99.90
2023-07-23T22:18:13.737Z,99.90
2023-07-23T22:20:42.676Z,99.90
2023-07-23T22:23:11.803Z,99.90
2023-07-23T22:25:41.171Z,99.90
2023-07-23T22:28:10.216Z,99.90
2023-07-23T22:30:39.376Z,99.90
2023-07-23T22:33:08.352Z,99.90
2023-07-23T22:35:38.578Z,99.90
2023-07-23T22:38:07.543Z,99.90
2023-07-23T22:40:36.520Z,99.90
2023-07-23T22:43:05.793Z,99.90
2023-07-23T22:45:35.012Z,99.90
2023-07-23T22:48:04.050Z,99.90
2023-07-23T22:50:34.242Z,99.90
2023-07-23T22:53:03.869Z,99.90
2023-07-23T22:55:36.054Z,99.90
2023-07-23T22:58:05.657Z,99.90
2023-07-23T23:00:35.549Z,99.90
2023-07-23T23:03:04.706Z,99.80
2023-07-23T23:05:33.836Z,99.50
2023-07-23T23:08:02.836Z,98.70
2023-07-23T23:10:31.840Z,98.60
2023-07-23T23:13:01.165Z,98.40
2023-07-23T23:15:30.140Z,98.50
2023-07-23T23:17:59.211Z,98.50
2023-07-23T23:20:28.214Z,98.60
2023-07-23T23:22:57.224Z,98.80
2023-07-23T23:25:26.557Z,98.90
2023-07-23T23:27:55.516Z,98.80
2023-07-23T23:30:24.568Z,98.80
2023-07-23T23:32:53.567Z,98.90
2023-07-23T23:35:22.656Z,99.20
2023-07-23T23:37:53.146Z,99.40
2023-07-23T23:40:22.217Z,99.50
2023-07-23T23:42:51.231Z,99.70
2023-07-23T23:45:20.283Z,99.80
2023-07-23T23:47:49.368Z,99.90
2023-07-23T23:50:18.494Z,99.90
2023-07-23T23:52:47.726Z,99.90
2023-07-23T23:55:16.834Z,99.90
2023-07-23T23:57:45.784Z,99.90
